createdAt,value
2022-11-05T00:02:01.541Z,8.30
2022-11-05T00:04:50.030Z,8.30
2022-11-05T00:07:45.413Z,8.40
2022-11-05T00:10:20.546Z,8.40
2022-11-05T00:13:06.834Z,8.40
2022-11-05T00:15:53.221Z,8.30
2022-11-05T00:18:22.060Z,8.30
2022-11-05T00:20:50.921Z,8.20
2022-11-05T00:23:38.765Z,8.10
2022-11-05T00:26:09.931Z,8.00
2022-11-05T00:28:40.977Z,8.00
2022-11-05T00:31:11.907Z,7.90
2022-11-05T00:33:41.154Z,7.80
2022-11-05T00:36:11.642Z,7.80
2022-11-05T00:38:41.701Z,7.80
2022-11-05T00:41:10.504Z,7.80
2022-11-05T00:43:56.157Z,7.80
2022-11-05T00:46:24.829Z,7.80
2022-11-05T00:49:11.083Z,7.90
2022-11-05T00:51:39.848Z,7.90
2022-11-05T00:54:10.125Z,7.90
2022-11-05T00:56:38.786Z,8.00
2022-11-05T00:59:07.830Z,8.00
2022-11-05T01:01:36.689Z,8.00
2022-11-05T01:04:05.914Z,8.10
2022-11-05T01:06:34.626Z,8.10
2022-11-05T01:09:03.401Z,8.10
2022-11-05T01:11:37.372Z,8.20
2022-11-05T01:14:09.012Z,8.20
2022-11-05T01:16:38.053Z,8.30
2022-11-05T01:19:07.768Z,8.30
2022-11-05T01:21:36.467Z,8.30
2022-11-05T01:24:05.837Z,8.30
2022-11-05T01:26:36.006Z,8.30
2022-11-05T01:29:04.717Z,8.30
2022-11-05T01:31:33.458Z,8.20
2022-11-05T01:34:02.664Z,8.10
2022-11-05T01:36:31.406Z,8.10
2022-11-05T01:39:00.054Z,8.00
2022-11-05T01:41:28.823Z,8.00
2022-11-05T01:44:00.676Z,8.00
2022-11-05T01:46:35.444Z,8.00
2022-11-05T01:49:11.954Z,8.00
2022-11-05T01:51:41.517Z,8.00
2022-11-05T01:54:14.547Z,8.00
2022-11-05T01:56:47.667Z,8.00
2022-11-05T01:59:24.135Z,8.00
2022-11-05T02:01:53.500Z,8.10
2022-11-05T02:04:29.195Z,8.10
2022-11-05T02:06:58.226Z,8.10
2022-11-05T02:09:32.298Z,8.10
2022-11-05T02:12:01.196Z,8.10
2022-11-05T02:14:31.344Z,8.10
2022-11-05T02:17:06.606Z,8.10
2022-11-05T02:20:07.479Z,8.20
2022-11-05T02:23:11.548Z,8.20
2022-11-05T02:26:25.099Z,8.10
2022-11-05T02:29:26.645Z,8.10
2022-11-05T02:32:02.955Z,8.10
2022-11-05T02:34:41.643Z,8.10
2022-11-05T02:37:17.734Z,8.10
2022-11-05T02:39:52.551Z,8.10
2022-11-05T02:42:31.238Z,8.10
2022-11-05T02:45:07.609Z,8.10
2022-11-05T02:47:45.645Z,8.20
2022-11-05T02:50:24.942Z,8.20
2022-11-05T02:53:02.021Z,8.20
2022-11-05T02:55:35.689Z,8.20
2022-11-05T02:58:05.332Z,8.30
2022-11-05T03:00:43.757Z,8.30
2022-11-05T03:03:18.431Z,8.30
2022-11-05T03:05:59.613Z,8.30
2022-11-05T03:08:40.048Z,8.30
2022-11-05T03:11:15.579Z,8.40
2022-11-05T03:13:53.823Z,8.40
2022-11-05T03:16:30.826Z,8.40
2022-11-05T03:19:09.406Z,8.30
2022-11-05T03:21:48.786Z,8.30
2022-11-05T03:24:21.949Z,8.30
2022-11-05T03:26:56.913Z,8.30
2022-11-05T03:29:30.404Z,8.20
2022-11-05T03:32:02.026Z,8.30
2022-11-05T03:34:35.245Z,8.20
2022-11-05T03:37:07.646Z,8.20
2022-11-05T03:39:41.529Z,8.30
2022-11-05T03:42:14.022Z,8.20
2022-11-05T03:44:47.481Z,8.20
2022-11-05T03:47:20.391Z,8.20
2022-11-05T03:49:57.191Z,8.20
2022-11-05T03:52:31.596Z,8.20
2022-11-05T03:55:00.908Z,8.30
2022-11-05T03:57:33.381Z,8.30
2022-11-05T04:00:02.388Z,8.30
2022-11-05T04:02:40.885Z,8.40
2022-11-05T04:05:09.862Z,8.40
2022-11-05T04:07:57.618Z,8.50
2022-11-05T04:10:43.878Z,8.50
2022-11-05T04:13:28.012Z,8.50
2022-11-05T04:16:15.689Z,8.50
2022-11-05T04:18:45.160Z,8.50
2022-11-05T04:21:31.142Z,8.50
2022-11-05T04:24:10.323Z,8.50
2022-11-05T04:26:40.846Z,8.60
2022-11-05T04:29:27.524Z,8.60
2022-11-05T04:31:56.741Z,8.60
2022-11-05T04:34:25.482Z,8.70
2022-11-05T04:36:54.541Z,8.70
2022-11-05T04:39:24.770Z,8.70
2022-11-05T04:41:53.563Z,8.70
2022-11-05T04:44:22.347Z,8.60
2022-11-05T04:46:50.926Z,8.60
2022-11-05T04:49:19.597Z,8.60
2022-11-05T04:51:48.357Z,8.60
2022-11-05T04:54:17.921Z,8.60
2022-11-05T04:56:48.067Z,8.60
2022-11-05T04:59:16.692Z,8.60
2022-11-05T05:01:45.414Z,8.60
2022-11-05T05:04:14.725Z,8.60
2022-11-05T05:06:43.398Z,8.60
2022-11-05T05:09:12.152Z,8.60
2022-11-05T05:11:41.207Z,8.60
2022-11-05T05:14:11.688Z,8.60
2022-11-05T05:16:40.427Z,8.60
2022-11-05T05:19:09.005Z,8.60
2022-11-05T05:21:39.671Z,8.50
2022-11-05T05:24:12.012Z,8.50
2022-11-05T05:26:42.748Z,8.40
2022-11-05T05:29:13.850Z,8.40
2022-11-05T05:31:42.956Z,8.40
2022-11-05T05:34:13.610Z,8.40
2022-11-05T05:36:42.419Z,8.50
2022-11-05T05:39:11.551Z,8.50
2022-11-05T05:41:40.300Z,8.50
2022-11-05T05:44:09.490Z,8.50
2022-11-05T05:46:39.799Z,8.50
2022-11-05T05:49:12.340Z,8.50
2022-11-05T05:51:41.813Z,8.50
2022-11-05T05:54:11.913Z,8.50
2022-11-05T05:56:40.605Z,8.50
2022-11-05T05:59:09.710Z,8.50
2022-11-05T06:01:40.013Z,8.60
2022-11-05T06:04:09.030Z,8.60
2022-11-05T06:06:37.246Z,8.60
2022-11-05T06:12:22.083Z,8.60
2022-11-05T06:14:50.348Z,8.70
2022-11-05T06:17:19.934Z,8.70
2022-11-05T06:19:48.212Z,8.70
2022-11-05T06:22:16.469Z,8.80
2022-11-05T06:24:44.628Z,8.80
2022-11-05T06:27:12.824Z,8.90
2022-11-05T06:29:41.033Z,8.90
2022-11-05T06:32:09.258Z,8.90
2022-11-05T06:34:38.863Z,9.00
2022-11-05T06:37:07.063Z,9.00
2022-11-05T06:39:35.845Z,9.00
2022-11-05T06:42:18.084Z,9.00
2022-11-05T06:44:48.344Z,9.10
2022-11-05T06:47:16.519Z,9.10
2022-11-05T06:49:49.047Z,9.10
2022-11-05T06:52:17.740Z,9.20
2022-11-05T06:54:46.508Z,9.10
2022-11-05T06:57:14.952Z,9.20
2022-11-05T06:59:44.026Z,9.20
2022-11-05T07:02:14.104Z,9.20
2022-11-05T07:04:42.807Z,9.20
2022-11-05T07:07:12.390Z,9.30
2022-11-05T07:09:43.059Z,9.30
2022-11-05T07:12:11.293Z,9.40
2022-11-05T07:14:40.131Z,9.40
2022-11-05T07:28:25.244Z,9.60
2022-11-05T07:30:54.191Z,9.70
2022-11-05T07:33:22.756Z,9.80
2022-11-05T07:35:51.249Z,9.80
2022-11-05T07:38:20.368Z,9.90
2022-11-05T07:40:48.939Z,10.00
2022-11-05T07:43:17.831Z,10.10
2022-11-05T07:45:48.198Z,10.20
2022-11-05T07:48:16.769Z,10.30
2022-11-05T07:50:45.384Z,10.40
2022-11-05T07:53:15.648Z,10.50
2022-11-05T07:55:46.126Z,10.50
2022-11-05T07:58:15.302Z,10.60
2022-11-05T08:00:44.056Z,10.70
2022-11-05T08:03:16.194Z,10.80
2022-11-05T08:05:47.212Z,10.90
2022-11-05T08:08:17.976Z,11.00
2022-11-05T08:10:46.895Z,11.10
2022-11-05T08:13:16.333Z,11.30
2022-11-05T08:15:45.231Z,11.40
2022-11-05T08:18:17.465Z,11.40
2022-11-05T08:20:47.945Z,11.50
2022-11-05T08:23:16.627Z,11.50
2022-11-05T08:25:45.193Z,11.40
2022-11-05T08:28:14.295Z,11.40
2022-11-05T08:30:43.116Z,11.30
2022-11-05T08:33:15.094Z,11.20
2022-11-05T08:35:43.934Z,11.20
2022-11-05T08:38:14.946Z,11.10
2022-11-05T08:40:44.757Z,11.00
2022-11-05T08:43:15.643Z,10.90
2022-11-05T08:45:44.199Z,10.90
2022-11-05T08:48:16.445Z,10.80
2022-11-05T08:50:45.993Z,10.80
2022-11-05T08:53:14.886Z,10.90
2022-11-05T08:55:44.008Z,10.90
2022-11-05T08:58:18.434Z,11.00
2022-11-05T09:00:49.651Z,11.00
2022-11-05T09:03:20.115Z,11.10
2022-11-05T09:05:48.687Z,11.20
2022-11-05T09:08:18.908Z,11.20
2022-11-05T09:10:49.963Z,11.20
2022-11-05T09:13:20.093Z,11.30
2022-11-05T09:15:49.418Z,11.40
2022-11-05T09:18:21.159Z,11.40
2022-11-05T09:20:49.920Z,11.50
2022-11-05T09:23:18.825Z,11.50
2022-11-05T09:25:47.933Z,11.60
2022-11-05T09:28:20.580Z,11.60
2022-11-05T09:30:51.446Z,11.60
2022-11-05T09:33:23.345Z,11.80
2022-11-05T09:35:53.563Z,12.00
2022-11-05T09:38:22.270Z,12.20
2022-11-05T09:40:58.880Z,12.40
2022-11-05T09:43:32.798Z,12.50
2022-11-05T09:46:08.523Z,12.70
2022-11-05T09:48:42.255Z,12.90
2022-11-05T09:51:19.378Z,13.10
2022-11-05T09:53:53.645Z,13.10
2022-11-05T09:56:25.570Z,13.00
2022-11-05T09:58:59.463Z,12.90
2022-11-05T10:01:31.935Z,12.80
2022-11-05T10:04:08.973Z,12.80
2022-11-05T10:06:50.096Z,12.60
2022-11-05T10:09:25.149Z,12.40
2022-11-05T10:12:03.740Z,12.20
2022-11-05T10:14:37.903Z,12.10
2022-11-05T10:17:12.152Z,11.90
2022-11-05T10:19:45.649Z,11.80
2022-11-05T10:22:16.952Z,11.80
2022-11-05T10:24:47.594Z,11.80
2022-11-05T10:27:19.871Z,11.70
2022-11-05T10:29:49.531Z,11.80
2022-11-05T10:32:26.617Z,12.00
2022-11-05T10:35:01.004Z,12.30
2022-11-05T10:37:30.558Z,12.80
2022-11-05T10:39:59.773Z,13.30
2022-11-05T10:42:50.747Z,13.60
2022-11-05T10:45:31.671Z,14.00
2022-11-05T10:48:14.520Z,14.30
2022-11-05T10:50:45.783Z,14.50
2022-11-05T10:53:17.866Z,14.50
2022-11-05T10:55:48.906Z,14.40
2022-11-05T10:58:22.972Z,14.40
2022-11-05T11:01:08.532Z,14.30
2022-11-05T11:03:42.632Z,14.10
2022-11-05T11:06:22.981Z,13.90
2022-11-05T11:08:53.185Z,13.70
2022-11-05T11:11:30.795Z,13.50
2022-11-05T11:14:06.125Z,13.30
2022-11-05T11:16:40.155Z,13.00
2022-11-05T11:19:26.785Z,12.80
2022-11-05T11:22:23.690Z,12.50
2022-11-05T11:24:54.173Z,12.20
2022-11-05T11:27:29.820Z,12.00
2022-11-05T11:30:00.153Z,11.90
2022-11-05T11:32:37.578Z,11.80
2022-11-05T11:35:07.955Z,11.80
2022-11-05T11:37:42.292Z,11.90
2022-11-05T11:40:18.168Z,12.00
2022-11-05T11:42:48.729Z,12.10
2022-11-05T11:45:19.892Z,12.20
2022-11-05T11:47:50.942Z,12.20
2022-11-05T11:50:37.971Z,12.20
2022-11-05T11:53:28.681Z,12.30
2022-11-05T11:56:00.375Z,12.50
2022-11-05T11:58:40.717Z,12.80
2022-11-05T12:01:49.188Z,12.90
2022-11-05T12:04:39.233Z,13.00
2022-11-05T12:07:24.228Z,13.00
2022-11-05T12:10:29.281Z,13.10
2022-11-05T12:13:16.547Z,13.10
2022-11-05T12:15:50.873Z,13.20
2022-11-05T12:18:28.385Z,13.20
2022-11-05T12:21:15.346Z,13.30
2022-11-05T12:24:11.662Z,13.40
2022-11-05T12:26:53.790Z,13.30
2022-11-05T12:29:36.262Z,13.50
2022-11-05T12:32:30.447Z,13.50
2022-11-05T12:35:05.551Z,13.60
2022-11-05T12:37:38.865Z,13.60
2022-11-05T12:40:20.962Z,13.70
2022-11-05T12:43:09.025Z,13.70
2022-11-05T12:45:51.903Z,13.60
2022-11-05T12:48:47.607Z,13.60
2022-11-05T12:51:29.862Z,13.70
2022-11-05T12:54:08.370Z,13.70
2022-11-05T12:56:42.615Z,13.60
2022-11-05T12:59:20.669Z,13.50
2022-11-05T13:01:53.767Z,13.40
2022-11-05T13:04:34.208Z,13.30
2022-11-05T13:07:06.698Z,13.10
2022-11-05T13:09:39.617Z,12.90
2022-11-05T13:12:12.292Z,12.80
2022-11-05T13:14:46.856Z,12.70
2022-11-05T13:17:20.818Z,12.50
2022-11-05T13:19:55.387Z,12.30
2022-11-05T13:22:32.038Z,12.10
2022-11-05T13:25:06.177Z,11.90
2022-11-05T13:27:50.073Z,11.70
2022-11-05T13:30:22.023Z,11.60
2022-11-05T13:33:01.945Z,11.50
2022-11-05T13:35:35.899Z,11.50
2022-11-05T13:38:27.028Z,11.50
2022-11-05T13:41:08.877Z,11.60
2022-11-05T13:43:49.249Z,11.70
2022-11-05T13:46:30.192Z,11.90
2022-11-05T13:49:26.620Z,12.00
2022-11-05T13:51:56.875Z,12.10
2022-11-05T13:55:01.244Z,12.30
2022-11-05T13:57:47.102Z,12.30
2022-11-05T14:00:20.299Z,12.30
2022-11-05T14:02:53.248Z,12.40
2022-11-05T14:05:28.288Z,12.40
2022-11-05T14:07:58.680Z,12.40
2022-11-05T14:10:37.814Z,12.50
2022-11-05T14:13:19.117Z,12.60
2022-11-05T14:16:09.562Z,12.60
2022-11-05T14:18:44.362Z,12.60
2022-11-05T14:21:47.514Z,12.60
2022-11-05T14:24:47.373Z,12.60
2022-11-05T14:27:34.547Z,12.60
2022-11-05T14:30:23.899Z,12.50
2022-11-05T14:32:53.226Z,12.50
2022-11-05T14:35:39.828Z,12.50
2022-11-05T14:38:21.417Z,12.40
2022-11-05T14:40:51.085Z,12.30
2022-11-05T14:43:25.027Z,12.20
2022-11-05T14:45:56.932Z,12.00
2022-11-05T14:48:35.353Z,12.00
2022-11-05T14:51:04.284Z,11.90
2022-11-05T14:53:38.215Z,11.80
2022-11-05T14:56:10.107Z,11.70
2022-11-05T14:58:40.049Z,11.60
2022-11-05T15:01:10.174Z,11.60
2022-11-05T15:04:04.285Z,11.50
2022-11-05T15:06:35.307Z,11.50
2022-11-05T15:09:27.955Z,11.40
2022-11-05T15:12:09.050Z,11.40
2022-11-05T15:14:43.003Z,11.30
2022-11-05T15:17:19.164Z,11.20
2022-11-05T15:19:49.202Z,11.20
2022-11-05T15:22:29.600Z,11.10
2022-11-05T15:25:00.826Z,11.00
2022-11-05T15:27:49.633Z,11.00
2022-11-05T15:30:20.143Z,10.90
2022-11-05T15:32:48.818Z,10.90
2022-11-05T15:35:23.643Z,10.90
2022-11-05T15:37:57.415Z,10.80
2022-11-05T15:40:33.489Z,10.80
2022-11-05T15:43:17.646Z,10.80
2022-11-05T15:46:02.661Z,10.70
2022-11-05T15:48:31.498Z,10.70
2022-11-05T15:51:00.276Z,10.60
2022-11-05T15:53:56.105Z,10.60
2022-11-05T15:56:29.624Z,10.50
2022-11-05T15:59:02.113Z,10.50
2022-11-05T16:01:34.139Z,10.50
2022-11-05T16:04:09.720Z,10.40
2022-11-05T16:06:40.778Z,10.30
2022-11-05T16:09:20.798Z,10.30
2022-11-05T16:11:54.455Z,10.30
2022-11-05T16:14:22.998Z,10.30
2022-11-05T16:16:51.570Z,10.30
2022-11-05T16:19:40.199Z,10.30
2022-11-05T16:22:09.476Z,10.20
2022-11-05T16:24:38.086Z,10.20
2022-11-05T16:27:08.281Z,10.20
2022-11-05T16:29:38.520Z,10.20
2022-11-05T16:32:14.629Z,10.10
2022-11-05T16:34:46.881Z,10.10
2022-11-05T16:37:17.455Z,10.10
2022-11-05T16:39:46.303Z,10.10
2022-11-05T16:42:48.726Z,10.10
2022-11-05T16:45:21.706Z,10.10
2022-11-05T16:47:50.817Z,10.00
2022-11-05T16:50:23.612Z,10.10
2022-11-05T16:52:52.220Z,10.00
2022-11-05T16:55:21.339Z,10.00
2022-11-05T16:57:52.298Z,10.10
2022-11-05T17:00:23.614Z,10.10
2022-11-05T17:02:52.249Z,10.10
2022-11-05T17:05:24.430Z,10.10
2022-11-05T17:07:53.247Z,10.10
2022-11-05T17:10:22.739Z,10.00
2022-11-05T17:12:51.711Z,10.10
2022-11-05T17:15:24.955Z,10.00
2022-11-05T17:17:54.705Z,10.00
2022-11-05T17:20:32.403Z,10.00
2022-11-05T17:23:03.938Z,10.00
2022-11-05T17:25:33.253Z,10.00
2022-11-05T17:28:01.701Z,10.00
2022-11-05T17:30:31.855Z,10.00
2022-11-05T17:33:00.383Z,10.00
2022-11-05T17:35:29.080Z,10.00
2022-11-05T17:37:57.583Z,9.90
2022-11-05T17:40:28.448Z,9.90
2022-11-05T17:42:57.139Z,9.90
2022-11-05T17:45:25.667Z,9.90
2022-11-05T17:47:55.560Z,9.90
2022-11-05T17:50:24.344Z,9.80
2022-11-05T17:52:52.862Z,9.90
2022-11-05T17:55:21.772Z,9.80
2022-11-05T17:57:53.258Z,9.80
2022-11-05T18:00:23.767Z,9.80
2022-11-05T18:02:55.331Z,9.80
2022-11-05T18:05:30.929Z,9.80
2022-11-05T18:07:59.998Z,9.70
2022-11-05T18:10:28.605Z,9.70
2022-11-05T18:12:57.190Z,9.70
2022-11-05T18:15:25.734Z,9.70
2022-11-05T18:17:55.656Z,9.70
2022-11-05T18:20:24.219Z,9.70
2022-11-05T18:22:52.876Z,9.70
2022-11-05T18:25:21.368Z,9.70
2022-11-05T18:27:49.851Z,9.70
2022-11-05T18:30:18.298Z,9.60
2022-11-05T18:32:47.801Z,9.60
2022-11-05T18:35:17.867Z,9.60
2022-11-05T18:37:46.440Z,9.60
2022-11-05T18:40:15.172Z,9.60
2022-11-05T18:42:43.888Z,9.60
2022-11-05T18:45:13.335Z,9.60
2022-11-05T18:47:41.873Z,9.60
2022-11-05T18:50:11.954Z,9.50
2022-11-05T18:52:41.889Z,9.50
2022-11-05T18:55:10.972Z,9.50
2022-11-05T18:57:39.738Z,9.50
2022-11-05T19:00:09.566Z,9.40
2022-11-05T19:02:38.131Z,9.40
2022-11-05T19:05:28.027Z,9.30
2022-11-05T19:07:57.732Z,9.20
2022-11-05T19:10:26.553Z,9.10
2022-11-05T19:12:55.182Z,9.00
2022-11-05T19:15:23.813Z,9.00
2022-11-05T19:17:52.331Z,8.90
2022-11-05T19:20:21.066Z,8.80
2022-11-05T19:22:49.690Z,8.70
2022-11-05T19:25:19.859Z,8.70
2022-11-05T19:27:48.364Z,8.60
2022-11-05T19:30:16.920Z,8.60
2022-11-05T19:32:45.363Z,8.50
2022-11-05T19:35:13.919Z,8.40
2022-11-05T19:37:42.292Z,8.40
2022-11-05T19:40:12.423Z,8.40
2022-11-05T19:42:42.299Z,8.30
2022-11-05T19:45:38.115Z,8.30
2022-11-05T19:48:00.407Z,8.20
2022-11-05T19:50:28.971Z,8.10
2022-11-05T19:52:57.438Z,8.00
2022-11-05T19:55:26.258Z,7.90
2022-11-05T19:57:56.237Z,7.80
2022-11-05T20:00:24.681Z,7.70
2022-11-05T20:02:53.378Z,7.70
2022-11-05T20:05:22.079Z,7.60
2022-11-05T20:07:53.043Z,7.60
2022-11-05T20:10:22.432Z,7.50
2022-11-05T20:12:50.944Z,7.50
2022-11-05T20:15:20.957Z,7.50
2022-11-05T20:17:51.269Z,7.50
2022-11-05T20:20:20.721Z,7.50
2022-11-05T20:22:49.228Z,7.60
2022-11-05T20:25:17.797Z,7.60
2022-11-05T20:27:46.404Z,7.70
2022-11-05T20:30:14.970Z,7.80
2022-11-05T20:32:45.239Z,7.80
2022-11-05T20:35:13.712Z,7.80
2022-11-05T20:37:42.197Z,7.80
2022-11-05T20:40:14.125Z,7.90
2022-11-05T20:42:43.020Z,7.90
2022-11-05T20:45:12.320Z,8.00
2022-11-05T20:47:40.887Z,8.00
2022-11-05T20:50:11.588Z,8.00
2022-11-05T20:52:40.535Z,8.10
2022-11-05T20:55:10.292Z,8.10
2022-11-05T20:57:38.973Z,8.00
2022-11-05T21:00:09.181Z,8.10
2022-11-05T21:02:39.831Z,8.10
2022-11-05T21:05:10.869Z,8.10
2022-11-05T21:07:39.356Z,8.20
2022-11-05T21:10:08.539Z,8.20
2022-11-05T21:12:37.022Z,8.20
2022-11-05T21:15:06.288Z,8.20
2022-11-05T21:17:34.750Z,8.30
2022-11-05T21:20:03.285Z,8.30
2022-11-05T21:22:33.231Z,8.30
2022-11-05T21:25:01.731Z,8.30
2022-11-05T21:27:30.224Z,8.30
2022-11-05T21:29:58.813Z,8.30
2022-11-05T21:32:27.305Z,8.30
2022-11-05T21:34:55.746Z,8.40
2022-11-05T21:37:24.199Z,8.40
2022-11-05T21:39:54.894Z,8.40
2022-11-05T21:42:23.346Z,8.30
2022-11-05T21:44:56.313Z,8.30
2022-11-05T21:47:29.465Z,8.30
2022-11-05T21:49:58.038Z,8.20
2022-11-05T21:52:46.480Z,8.20
2022-11-05T21:55:36.394Z,8.10
2022-11-05T21:58:30.492Z,8.10
2022-11-05T22:00:59.212Z,7.90
2022-11-05T22:03:27.691Z,7.80
2022-11-05T22:05:58.346Z,7.70
2022-11-05T22:08:27.294Z,7.50
2022-11-05T22:10:57.234Z,7.40
2022-11-05T22:13:25.747Z,7.30
2022-11-05T22:15:57.243Z,7.20
2022-11-05T22:18:25.705Z,7.00
2022-11-05T22:20:54.107Z,6.90
2022-11-05T22:23:22.670Z,6.80
2022-11-05T22:25:51.078Z,6.70
2022-11-05T22:28:21.884Z,6.60
2022-11-05T22:30:50.347Z,6.50
2022-11-05T22:33:18.741Z,6.50
2022-11-05T22:35:47.312Z,6.50
2022-11-05T22:38:15.816Z,6.50
2022-11-05T22:40:44.493Z,6.50
2022-11-05T22:43:12.958Z,6.50
2022-11-05T22:45:43.964Z,6.50
2022-11-05T22:48:12.691Z,6.50
2022-11-05T22:50:41.480Z,6.60
2022-11-05T22:53:09.968Z,6.50
2022-11-05T22:55:40.681Z,6.50
2022-11-05T22:58:09.208Z,6.60
2022-11-05T23:00:39.944Z,6.60
2022-11-05T23:03:09.958Z,6.50
2022-11-05T23:05:38.505Z,6.50
2022-11-05T23:08:24.589Z,6.40
2022-11-05T23:11:22.730Z,6.30
2022-11-05T23:13:51.191Z,6.20
2022-11-05T23:16:36.668Z,6.10
2022-11-05T23:19:23.806Z,6.10
2022-11-05T23:22:09.546Z,6.10
2022-11-05T23:24:38.759Z,6.10
2022-11-05T23:27:07.317Z,6.00
2022-11-05T23:29:36.257Z,6.00
2022-11-05T23:32:21.930Z,5.90
2022-11-05T23:34:52.050Z,5.90
2022-11-05T23:37:38.169Z,5.80
2022-11-05T23:40:09.092Z,5.80
2022-11-05T23:42:55.156Z,5.70
2022-11-05T23:45:40.739Z,5.70
2022-11-05T23:48:19.397Z,5.70
2022-11-05T23:50:52.882Z,5.70
2022-11-05T23:53:21.662Z,5.60
2022-11-05T23:55:50.344Z,5.50
2022-11-05T23:58:19.658Z,5.50
